createdAt,value
2022-11-12T00:02:08.658Z,12.85
2022-11-12T00:05:12.785Z,13.05
2022-11-12T00:08:17.623Z,12.48
2022-11-12T00:11:21.675Z,15.88
2022-11-12T00:14:25.902Z,16.83
2022-11-12T00:17:30.165Z,15.50
2022-11-12T00:20:35.062Z,14.90
2022-11-12T00:23:39.213Z,14.65
2022-11-12T00:26:43.512Z,12.63
2022-11-12T00:29:48.213Z,11.55
2022-11-12T00:32:52.503Z,10.23
2022-11-12T00:36:00.718Z,10.02
2022-11-12T00:39:05.254Z,9.93
2022-11-12T00:42:09.546Z,10.50
2022-11-12T00:45:13.781Z,10.57
2022-11-12T00:48:17.954Z,9.48
2022-11-12T00:51:22.987Z,9.23
2022-11-12T00:54:27.213Z,8.93
2022-11-12T00:57:32.005Z,10.15
2022-11-12T01:00:35.971Z,11.50
2022-11-12T01:03:41.287Z,14.35
2022-11-12T01:06:45.614Z,12.65
2022-11-12T01:09:49.955Z,12.77
2022-11-12T01:12:54.730Z,10.45
2022-11-12T01:15:58.965Z,9.50
2022-11-12T01:19:05.362Z,10.23
2022-11-12T01:22:10.977Z,8.82
2022-11-12T01:25:15.088Z,9.77
2022-11-12T01:28:19.810Z,10.25
2022-11-12T01:31:27.190Z,9.05
2022-11-12T01:34:31.220Z,8.45
2022-11-12T01:37:35.681Z,8.63
2022-11-12T01:40:39.994Z,8.68
2022-11-12T01:43:44.503Z,8.38
2022-11-12T01:46:55.258Z,7.65
2022-11-12T01:50:15.041Z,8.15
2022-11-12T01:53:22.940Z,7.35
2022-11-12T01:56:30.853Z,8.20
2022-11-12T01:59:41.634Z,8.20
2022-11-12T02:02:52.731Z,8.38
2022-11-12T02:06:11.513Z,7.90
2022-11-12T02:09:16.393Z,8.45
2022-11-12T02:12:39.730Z,8.48
2022-11-12T02:15:45.155Z,8.20
2022-11-12T02:18:49.429Z,7.90
2022-11-12T02:21:53.498Z,8.68
2022-11-12T02:24:57.563Z,7.95
2022-11-12T02:28:06.310Z,8.30
2022-11-12T02:31:10.470Z,8.95
2022-11-12T02:34:14.826Z,8.82
2022-11-12T02:37:19.417Z,8.65
2022-11-12T02:40:23.711Z,9.20
2022-11-12T02:43:28.022Z,7.70
2022-11-12T02:46:32.226Z,6.22
2022-11-12T02:49:36.449Z,5.70
2022-11-12T02:52:40.954Z,7.47
2022-11-12T02:55:45.457Z,8.77
2022-11-12T02:58:49.669Z,8.70
2022-11-12T03:01:53.822Z,7.85
2022-11-12T03:04:58.016Z,8.18
2022-11-12T03:08:07.909Z,7.75
2022-11-12T03:11:14.959Z,7.70
2022-11-12T03:14:19.286Z,9.20
2022-11-12T03:17:23.421Z,7.75
2022-11-12T03:20:28.162Z,7.65
2022-11-12T03:23:32.460Z,7.60
2022-11-12T03:26:36.626Z,8.85
2022-11-12T03:29:41.069Z,10.20
2022-11-12T03:32:45.304Z,8.63
2022-11-12T03:35:49.690Z,7.03
2022-11-12T03:38:53.867Z,6.65
2022-11-12T03:41:58.299Z,6.30
2022-11-12T03:45:02.854Z,7.20
2022-11-12T03:48:07.191Z,6.15
2022-11-12T03:51:16.253Z,7.60
2022-11-12T03:54:20.186Z,7.10
2022-11-12T03:57:24.168Z,7.05
2022-11-12T04:00:29.158Z,7.47
2022-11-12T04:03:33.145Z,7.88
2022-11-12T04:06:56.090Z,7.15
2022-11-12T04:10:00.582Z,8.77
2022-11-12T04:13:23.281Z,8.63
2022-11-12T04:16:46.193Z,8.75
2022-11-12T04:20:09.078Z,9.15
2022-11-12T04:23:13.427Z,9.05
2022-11-12T04:26:23.411Z,8.98
2022-11-12T04:29:46.211Z,8.65
2022-11-12T04:35:56.525Z,9.68
2022-11-12T04:39:00.863Z,9.50
2022-11-12T04:42:23.894Z,10.60
2022-11-12T04:45:28.203Z,12.38
2022-11-12T04:48:32.650Z,13.38
2022-11-12T04:51:55.517Z,12.95
2022-11-12T04:55:00.373Z,11.35
2022-11-12T04:58:04.686Z,11.07
2022-11-12T05:01:08.914Z,10.98
2022-11-12T05:04:14.197Z,10.88
2022-11-12T05:07:18.825Z,10.57
2022-11-12T05:10:23.393Z,11.32
2022-11-12T05:13:29.346Z,12.55
2022-11-12T05:16:33.526Z,13.30
2022-11-12T05:19:37.850Z,13.68
2022-11-12T05:22:47.695Z,13.18
2022-11-12T05:25:54.747Z,13.40
2022-11-12T05:28:59.156Z,12.68
2022-11-12T05:32:04.758Z,14.02
2022-11-12T05:35:08.907Z,13.77
2022-11-12T05:38:13.389Z,14.30
2022-11-12T05:41:20.332Z,17.83
2022-11-12T05:44:24.944Z,14.32
2022-11-12T05:47:29.146Z,13.80
2022-11-12T05:50:45.414Z,13.43
2022-11-12T05:53:58.247Z,12.00
2022-11-12T05:57:02.560Z,12.30
2022-11-12T06:00:07.720Z,12.38
2022-11-12T06:03:12.708Z,12.43
2022-11-12T06:06:18.275Z,12.68
2022-11-12T06:09:22.504Z,12.43
2022-11-12T06:12:26.803Z,14.35
2022-11-12T06:15:35.217Z,12.82
2022-11-12T06:18:43.511Z,13.40
2022-11-12T06:21:48.318Z,12.38
2022-11-12T06:24:52.615Z,13.32
2022-11-12T06:27:57.035Z,14.52
2022-11-12T06:31:01.133Z,16.13
2022-11-12T06:34:07.171Z,16.95
2022-11-12T06:37:11.466Z,15.20
2022-11-12T06:40:15.773Z,15.10
2022-11-12T06:43:20.087Z,15.95
2022-11-12T06:46:24.368Z,24.27
2022-11-12T06:49:28.666Z,21.23
2022-11-12T06:52:33.053Z,21.75
2022-11-12T06:55:37.431Z,21.13
2022-11-12T06:58:42.578Z,19.30
2022-11-12T07:01:46.702Z,17.42
2022-11-12T07:04:57.133Z,15.85
2022-11-12T07:08:08.786Z,14.82
2022-11-12T07:11:13.900Z,13.60
2022-11-12T07:14:18.472Z,13.25
2022-11-12T07:17:23.094Z,14.20
2022-11-12T07:20:27.222Z,15.32
2022-11-12T07:23:33.500Z,15.43
2022-11-12T07:26:38.552Z,14.88
2022-11-12T07:29:48.527Z,15.63
2022-11-12T07:32:53.596Z,15.10
2022-11-12T07:36:03.890Z,15.20
2022-11-12T07:39:07.947Z,14.73
2022-11-12T07:42:12.282Z,14.43
2022-11-12T07:45:16.790Z,14.73
2022-11-12T07:48:21.056Z,10.98
2022-11-12T07:51:28.041Z,12.43
2022-11-12T07:54:32.924Z,11.95
2022-11-12T07:57:37.290Z,12.20
2022-11-12T08:00:41.765Z,10.45
2022-11-12T08:03:46.029Z,12.13
2022-11-12T08:06:52.996Z,11.82
2022-11-12T08:10:02.154Z,11.40
2022-11-12T08:13:06.868Z,11.05
2022-11-12T08:16:17.138Z,11.00
2022-11-12T08:19:25.283Z,11.20
2022-11-12T08:22:34.396Z,12.25
2022-11-12T08:25:38.856Z,13.25
2022-11-12T08:28:43.223Z,13.90
2022-11-12T08:31:48.673Z,13.57
2022-11-12T08:34:53.080Z,12.80
2022-11-12T08:38:00.237Z,11.50
2022-11-12T08:41:11.221Z,11.38
2022-11-12T08:44:15.926Z,12.80
2022-11-12T08:47:21.166Z,11.45
2022-11-12T08:50:26.505Z,12.60
2022-11-12T08:53:44.713Z,12.75
2022-11-12T08:56:49.311Z,12.40
2022-11-12T08:59:54.259Z,10.63
2022-11-12T09:03:08.765Z,11.63
2022-11-12T09:06:14.268Z,11.13
2022-11-12T09:09:18.693Z,12.20
2022-11-12T09:12:23.715Z,11.30
2022-11-12T09:15:38.231Z,10.98
2022-11-12T09:18:43.669Z,14.60
2022-11-12T09:21:48.145Z,10.93
2022-11-12T09:24:53.162Z,12.60
2022-11-12T09:27:57.583Z,24.90
2022-11-12T09:31:02.131Z,12.60
2022-11-12T09:34:06.256Z,12.20
2022-11-12T09:37:10.678Z,13.52
2022-11-12T09:40:19.879Z,12.98
2022-11-12T09:44:10.737Z,11.73
2022-11-12T09:47:41.486Z,12.10
2022-11-12T09:50:59.204Z,12.23
2022-11-12T09:54:19.536Z,16.48
2022-11-12T09:57:24.051Z,14.93
2022-11-12T10:00:29.894Z,15.57
2022-11-12T10:03:52.627Z,16.92
2022-11-12T10:07:24.246Z,16.13
2022-11-12T10:10:41.977Z,15.45
2022-11-12T10:14:02.064Z,16.13
2022-11-12T10:17:19.805Z,15.35
2022-11-12T10:20:37.560Z,13.98
2022-11-12T10:23:46.370Z,12.45
2022-11-12T10:26:52.250Z,12.60
2022-11-12T10:30:06.645Z,15.32
2022-11-12T10:33:15.253Z,17.00
2022-11-12T10:36:28.929Z,13.85
2022-11-12T10:39:39.134Z,14.15
2022-11-12T10:43:20.179Z,13.38
2022-11-12T10:46:35.178Z,12.10
2022-11-12T10:49:39.474Z,14.45
2022-11-12T10:53:04.734Z,14.93
2022-11-12T10:56:29.503Z,13.57
2022-11-12T10:59:34.064Z,11.13
2022-11-12T11:02:46.502Z,10.30
2022-11-12T11:09:13.204Z,8.45
2022-11-12T11:12:26.555Z,7.35
2022-11-12T11:15:30.948Z,8.13
2022-11-12T11:18:38.579Z,8.73
2022-11-12T11:21:48.632Z,8.15
2022-11-12T11:24:58.771Z,8.02
2022-11-12T11:28:24.879Z,8.20
2022-11-12T11:31:40.203Z,7.95
2022-11-12T11:35:19.816Z,8.18
2022-11-12T11:38:39.123Z,8.35
2022-11-12T11:41:57.671Z,7.55
2022-11-12T11:45:24.036Z,8.65
2022-11-12T11:48:31.271Z,7.60
2022-11-12T11:52:02.431Z,8.85
2022-11-12T11:55:06.700Z,8.75
2022-11-12T11:58:39.012Z,8.07
2022-11-12T12:01:54.962Z,8.35
2022-11-12T12:05:11.367Z,8.07
2022-11-12T12:08:51.021Z,8.52
2022-11-12T12:12:18.785Z,10.75
2022-11-12T12:15:46.993Z,10.43
2022-11-12T12:18:57.581Z,9.93
2022-11-12T12:22:06.406Z,9.52
2022-11-12T12:25:34.277Z,9.40
2022-11-12T12:28:38.842Z,10.18
2022-11-12T12:32:23.990Z,12.70
2022-11-12T12:36:11.340Z,11.48
2022-11-12T12:39:19.684Z,10.63
2022-11-12T12:42:33.926Z,12.30
2022-11-12T12:45:43.990Z,12.32
2022-11-12T12:48:51.701Z,14.57
2022-11-12T12:51:56.233Z,11.88
2022-11-12T12:55:01.868Z,14.10
2022-11-12T12:58:24.008Z,15.05
2022-11-12T13:01:31.574Z,13.90
2022-11-12T13:04:53.979Z,12.38
2022-11-12T13:08:04.435Z,12.23
2022-11-12T13:11:09.308Z,11.57
2022-11-12T13:14:35.004Z,12.07
2022-11-12T13:17:47.919Z,12.60
2022-11-12T13:21:17.924Z,13.15
2022-11-12T13:25:00.440Z,12.45
2022-11-12T13:28:07.362Z,12.18
2022-11-12T13:31:28.230Z,13.77
2022-11-12T13:34:34.033Z,14.27
2022-11-12T13:38:04.221Z,12.75
2022-11-12T13:41:42.592Z,15.50
2022-11-12T13:44:54.927Z,15.15
2022-11-12T13:48:00.452Z,15.20
2022-11-12T13:51:34.295Z,15.80
2022-11-12T13:54:39.259Z,15.05
2022-11-12T13:57:54.873Z,14.32
2022-11-12T14:01:04.797Z,14.65
2022-11-12T14:04:13.671Z,16.05
2022-11-12T14:07:48.266Z,16.30
2022-11-12T14:11:30.371Z,16.67
2022-11-12T14:14:47.020Z,17.87
2022-11-12T14:18:02.326Z,15.23
2022-11-12T14:21:15.310Z,14.90
2022-11-12T14:24:20.587Z,14.27
2022-11-12T14:27:34.298Z,12.43
2022-11-12T14:30:44.729Z,13.35
2022-11-12T14:33:49.060Z,12.15
2022-11-12T14:36:56.396Z,12.20
2022-11-12T14:40:01.147Z,12.38
2022-11-12T14:43:06.026Z,15.13
2022-11-12T14:46:23.512Z,14.32
2022-11-12T14:49:45.810Z,13.85
2022-11-12T14:53:13.553Z,13.32
2022-11-12T14:56:42.648Z,13.55
2022-11-12T14:59:47.531Z,13.13
2022-11-12T15:02:59.254Z,12.68
2022-11-12T15:06:03.730Z,13.60
2022-11-12T15:09:08.963Z,16.58
2022-11-12T15:12:22.522Z,26.08
2022-11-12T15:15:27.366Z,26.83
2022-11-12T15:18:33.615Z,19.73
2022-11-12T15:21:45.234Z,15.98
2022-11-12T15:24:49.877Z,13.10
2022-11-12T15:27:54.286Z,11.15
2022-11-12T15:31:07.203Z,11.02
2022-11-12T15:34:39.973Z,11.05
2022-11-12T15:37:44.954Z,11.25
2022-11-12T15:40:57.540Z,29.85
2022-11-12T15:44:02.615Z,24.55
2022-11-12T15:47:15.317Z,30.55
2022-11-12T15:53:26.722Z,13.30
2022-11-12T15:56:31.495Z,12.23
2022-11-12T15:59:36.114Z,15.05
2022-11-12T16:02:40.747Z,16.05
2022-11-12T16:05:45.779Z,22.23
2022-11-12T16:08:50.890Z,22.23
2022-11-12T16:11:57.454Z,20.13
2022-11-12T16:15:02.293Z,19.02
2022-11-12T16:18:16.667Z,15.10
2022-11-12T16:21:26.496Z,15.10
2022-11-12T16:24:30.831Z,13.02
2022-11-12T16:27:38.242Z,13.65
2022-11-12T16:30:44.825Z,15.90
2022-11-12T16:33:49.637Z,20.52
2022-11-12T16:36:54.813Z,23.25
2022-11-12T16:39:59.213Z,21.88
2022-11-12T16:43:03.651Z,18.55
2022-11-12T16:46:21.213Z,17.23
2022-11-12T16:49:26.277Z,19.58
2022-11-12T16:52:30.602Z,16.30
2022-11-12T16:55:35.350Z,16.85
2022-11-12T16:58:41.306Z,16.50
2022-11-12T17:01:46.055Z,16.80
2022-11-12T17:04:50.455Z,16.15
2022-11-12T17:07:57.641Z,13.35
2022-11-12T17:11:07.185Z,13.80
2022-11-12T17:14:12.073Z,14.07
2022-11-12T17:17:19.555Z,14.85
2022-11-12T17:20:31.277Z,23.55
2022-11-12T17:23:36.562Z,22.98
2022-11-12T17:26:52.192Z,18.08
2022-11-12T17:29:57.197Z,18.63
2022-11-12T17:33:02.594Z,19.42
2022-11-12T17:39:57.402Z,15.30
2022-11-12T17:43:03.022Z,16.23
2022-11-12T17:46:09.238Z,15.02
2022-11-12T17:49:15.198Z,14.77
2022-11-12T17:52:19.378Z,14.48
2022-11-12T17:55:05.211Z,15.18
2022-11-12T17:57:55.755Z,18.98
2022-11-12T18:01:12.908Z,29.88
2022-11-12T18:04:17.339Z,34.08
2022-11-12T18:07:21.640Z,31.90
2022-11-12T18:10:26.659Z,37.40
2022-11-12T18:13:31.850Z,39.22
2022-11-12T18:16:36.824Z,37.72
2022-11-12T18:19:41.188Z,31.75
2022-11-12T18:22:47.234Z,32.85
2022-11-12T18:25:51.851Z,28.98
2022-11-12T18:28:58.089Z,55.50
2022-11-12T18:32:02.694Z,64.35
2022-11-12T18:35:08.304Z,62.38
2022-11-12T18:38:12.587Z,64.82
2022-11-12T18:41:21.375Z,56.45
2022-11-12T18:44:26.215Z,50.72
2022-11-12T18:47:30.745Z,39.53
2022-11-12T18:50:35.297Z,38.05
2022-11-12T18:53:40.542Z,29.67
2022-11-12T18:56:44.897Z,24.75
2022-11-12T18:59:52.863Z,22.80
2022-11-12T19:02:57.426Z,25.48
2022-11-12T19:06:04.686Z,23.67
2022-11-12T19:09:12.426Z,25.02
2022-11-12T19:12:17.814Z,23.13
2022-11-12T19:15:26.791Z,22.45
2022-11-12T19:18:32.630Z,21.92
2022-11-12T19:21:37.714Z,20.63
2022-11-12T19:24:42.112Z,20.67
2022-11-12T19:27:46.501Z,20.17
2022-11-12T19:30:51.119Z,19.98
2022-11-12T19:33:55.826Z,25.83
2022-11-12T19:40:26.363Z,26.88
2022-11-12T19:43:30.962Z,23.15
2022-11-12T19:46:36.435Z,21.88
2022-11-12T19:49:41.350Z,25.65
2022-11-12T19:52:46.380Z,34.72
2022-11-12T19:55:52.010Z,58.65
2022-11-12T19:58:56.877Z,84.28
2022-11-12T20:02:01.324Z,71.82
2022-11-12T20:05:06.445Z,64.97
2022-11-12T20:08:10.948Z,55.15
2022-11-12T20:11:21.363Z,57.05
2022-11-12T20:14:27.415Z,56.75
2022-11-12T20:17:33.234Z,52.22
2022-11-12T20:20:37.314Z,51.95
2022-11-12T20:23:43.078Z,58.90
2022-11-12T20:26:48.293Z,45.05
2022-11-12T20:29:52.345Z,33.90
2022-11-12T20:32:56.571Z,30.60
2022-11-12T20:36:07.302Z,30.50
2022-11-12T20:39:13.132Z,29.95
2022-11-12T20:42:17.660Z,40.83
2022-11-12T20:45:21.692Z,43.58
2022-11-12T20:48:26.669Z,39.10
2022-11-12T20:51:32.977Z,27.48
2022-11-12T20:54:37.722Z,31.27
2022-11-12T20:57:42.298Z,30.75
2022-11-12T21:00:46.767Z,31.35
2022-11-12T21:03:52.093Z,46.35
2022-11-12T21:06:59.765Z,40.17
2022-11-12T21:10:09.066Z,35.35
2022-11-12T21:13:14.154Z,33.80
2022-11-12T21:16:18.807Z,33.17
2022-11-12T21:19:23.783Z,30.42
2022-11-12T21:22:28.452Z,31.92
2022-11-12T21:25:36.961Z,33.17
2022-11-12T21:28:46.470Z,38.20
2022-11-12T21:31:51.191Z,37.67
2022-11-12T21:34:55.747Z,44.50
2022-11-12T21:37:59.619Z,101.90
2022-11-12T21:41:09.846Z,63.30
2022-11-12T21:44:14.269Z,62.13
2022-11-12T21:47:18.494Z,52.63
2022-11-12T21:50:22.922Z,48.35
2022-11-12T21:53:27.458Z,50.80
2022-11-12T21:56:34.095Z,42.10
2022-11-12T21:59:38.733Z,51.63
2022-11-12T22:02:43.130Z,52.30
2022-11-12T22:05:47.307Z,46.78
2022-11-12T22:08:56.296Z,49.42
2022-11-12T22:12:00.797Z,45.22
2022-11-12T22:15:05.562Z,47.22
2022-11-12T22:18:09.735Z,50.13
2022-11-12T22:21:16.806Z,49.53
2022-11-12T22:24:21.359Z,47.20
2022-11-12T22:27:25.799Z,73.85
2022-11-12T22:30:30.025Z,51.53
2022-11-12T22:33:35.306Z,73.68
2022-11-12T22:36:39.586Z,54.30
2022-11-12T22:39:43.898Z,59.70
2022-11-12T22:42:48.174Z,54.67
2022-11-12T22:45:52.603Z,47.88
2022-11-12T22:48:57.112Z,51.45
2022-11-12T22:52:01.584Z,48.22
2022-11-12T22:55:06.080Z,35.38
2022-11-12T22:58:10.536Z,31.63
2022-11-12T23:01:29.374Z,37.35
2022-11-12T23:04:33.679Z,59.30
2022-11-12T23:07:37.976Z,43.05
2022-11-12T23:10:45.824Z,32.15
2022-11-12T23:13:50.516Z,22.48
2022-11-12T23:16:58.742Z,19.25
2022-11-12T23:20:03.632Z,18.10
2022-11-12T23:23:07.582Z,20.48
2022-11-12T23:26:17.905Z,18.73
2022-11-12T23:29:22.537Z,19.63
2022-11-12T23:32:26.951Z,47.72
2022-11-12T23:35:31.199Z,94.15
2022-11-12T23:38:35.512Z,23.60
2022-11-12T23:41:39.524Z,19.80
2022-11-12T23:44:45.303Z,22.80
2022-11-12T23:47:49.556Z,29.38
2022-11-12T23:51:20.950Z,18.40
2022-11-12T23:54:24.964Z,19.67
2022-11-12T23:57:29.365Z,19.10
